Time;durP1;ratioP1;P1;durP2;ratioP2;P2;SDS_P1;SDS_P2;PMS_P1;PMS_P2;Temp;Humidity;BMP_temperature;BMP_pressure;BME280_temperature;BME280_humidity;BME280_pressure;Samples;Min_cycle;Max_cycle;Signal;HPM_P1;HPM_P2
2022/10/21 00:00:26;;;;;;;;;;;;;;;;;;5012369;28;1027;-72
2022/10/21 00:02:51;;;;;;;;;;;;;;;;;;5027486;28;825;-72
2022/10/21 00:05:16;;;;;;;;;;;;;;;;;;5011900;28;1037;-72
2022/10/21 00:07:42;;;;;;;;;;;;;;;;;;5027526;28;2853;-72
2022/10/21 00:10:08;;;;;;;;;;;;;;;;;;5007153;28;1956;-71
2022/10/21 00:12:33;;;;;;;;;;;;;;;;;;4990625;28;1156;-72
2022/10/21 00:14:58;;;;;;;;;;;;;;;;;;5022944;28;881;-72
2022/10/21 00:17:24;;;;;;;;;;;;;;;;;;5022909;28;787;-72
2022/10/21 00:19:49;;;;;;;;;;;;;;;;;;4991663;28;1013;-72
2022/10/21 00:22:14;;;;;;;;;;;;;;;;;;5007210;28;971;-72
2022/10/21 00:24:39;;;;;;;;;;;;;;;;;;5009677;28;1031;-73
2022/10/21 00:27:05;;;;;;;;;;;;;;;;;;5010413;28;940;-73
2022/10/21 00:29:30;;;;;;;;;;;;;;;;;;5010933;28;1016;-73
2022/10/21 00:31:56;;;;;;;;;;;;;;;;;;5011064;28;1959;-71
2022/10/21 00:34:21;;;;;;;;;;;;;;;;;;5014937;28;1192;-72
2022/10/21 00:36:46;;;;;;;;;;;;;;;;;;5029152;28;2933;-72
2022/10/21 00:39:12;;;;;;;;;;;;;;;;;;5012593;28;3310;-72
2022/10/21 00:41:37;;;;;;;;;;;;;;;;;;5026173;28;912;-71
2022/10/21 00:44:04;;;;;;;;;;;;;;;;;;5022767;28;3168;-72
2022/10/21 00:46:37;;;;;;;;;;;;;;;;;;5030178;28;948;-71
2022/10/21 00:49:06;;;;;;;;;;;;;;;;;;5011904;28;1335;-72
2022/10/21 00:51:31;;;;;;;;;;;;;;;;;;5030570;28;1898;-72
2022/10/21 00:53:57;;;;;;;;;;;;;;;;;;5029746;28;968;-72
2022/10/21 00:56:25;;;;;;;;;;;;;;;;;;5030172;28;822;-72
2022/10/21 00:58:52;;;;;;;;;;;;;;;;;;5030352;28;880;-72
2022/10/21 01:01:18;;;;;;;;;;;;;;;;;;5030081;28;932;-72
2022/10/21 01:03:43;;;;;;;;;;;;;;;;;;5012664;28;1186;-72
2022/10/21 01:06:09;;;;;;;;;;;;;;;;;;5028540;28;1294;-72
2022/10/21 01:08:36;;;;;;;;;;;;;;;;;;5012541;28;1245;-71
2022/10/21 01:11:02;;;;;;;;;;;;;;;;;;5012204;28;1906;-72
2022/10/21 01:13:35;;;;;;;;;;;;;;;;;;5012396;28;1313;-72
2022/10/21 01:16:16;;;;;;;;;;;;;;;;;;5029688;28;920;-72
2022/10/21 01:18:47;;;;;;;;;;;;;;;;;;5030504;28;833;-72
2022/10/21 01:21:19;;;;;;;;;;;;;;;;;;5028838;28;3158;-72
2022/10/21 01:23:54;;;;;;;;;;;;;;;;;;4999176;28;3065;-73
2022/10/21 01:26:19;;;;;;;;;;;;;;;;;;4992706;28;1278;-73
2022/10/21 01:29:03;;;;;;;;;;;;;;;;;;4993381;28;1351;-72
2022/10/21 01:31:49;;;;;;;;;;;;;;;;;;5010849;28;1906;-73
2022/10/21 01:34:21;;;;;;;;;;;;;;;;;;5010336;28;1430;-72
2022/10/21 01:36:50;;;;;;;;;;;;;;;;;;4993723;28;1288;-72
2022/10/21 01:39:15;;;;;;;;;;;;;;;;;;4993323;28;1193;-72
2022/10/21 01:41:47;;;;;;;;;;;;;;;;;;5014551;28;2958;-72
2022/10/21 01:44:12;;;;;;;;;;;;;;;;;;5010871;28;917;-71
2022/10/21 01:46:41;;;;;;;;;;;;;;;;;;4997472;28;1165;-72
2022/10/21 01:49:10;;;;;;;;;;;;;;;;;;5013534;28;822;-72
2022/10/21 01:51:35;;;;;;;;;;;;;;;;;;5013446;28;1971;-72
2022/10/21 01:54:03;;;;;;;;;;;;;;;;;;5028619;28;1264;-72
2022/10/21 01:56:29;;;;;;;;;;;;;;;;;;5028611;28;1236;-72
2022/10/21 01:58:55;;;;;;;;;;;;;;;;;;5016759;28;3185;-72
2022/10/21 02:01:21;;;;;;;;;;;;;;;;;;5028106;28;3798;-72
2022/10/21 02:03:48;;;;;;;;;;;;;;;;;;5028214;28;907;-72
2022/10/21 02:06:14;;;;;;;;;;;;;;;;;;5011179;28;1245;-73
2022/10/21 02:08:40;;;;;;;;;;;;;;;;;;5028297;28;983;-72
2022/10/21 02:11:06;;;;;;;;;;;;;;;;;;5027994;28;1949;-72
2022/10/21 02:13:34;;;;;;;;;;;;;;;;;;5027891;28;1164;-73
2022/10/21 02:16:01;;;;;;;;;;;;;;;;;;5010991;28;1217;-72
2022/10/21 02:18:27;;;;;;;;;;;;;;;;;;5013176;28;3064;-72
2022/10/21 02:20:58;;;;;;;;;;;;;;;;;;5005397;28;3240;-72
2022/10/21 02:23:34;;;;;;;;;;;;;;;;;;5032224;28;964;-72
2022/10/21 02:26:00;;;;;;;;;;;;;;;;;;4995211;28;3224;-72
2022/10/21 02:28:25;;;;;;;;;;;;;;;;;;5027468;28;841;-72
2022/10/21 02:30:53;;;;;;;;;;;;;;;;;;5027588;28;1952;-72
2022/10/21 02:33:22;;;;;;;;;;;;;;;;;;5027095;28;1296;-72
2022/10/21 02:35:57;;;;;;;;;;;;;;;;;;5006276;28;1296;-72
2022/10/21 02:38:36;;;;;;;;;;;;;;;;;;4992685;28;988;-72
2022/10/21 02:41:09;;;;;;;;;;;;;;;;;;4992509;28;846;-72
2022/10/21 02:43:51;;;;;;;;;;;;;;;;;;4992667;28;869;-72
2022/10/21 02:46:16;;;;;;;;;;;;;;;;;;4990608;28;1278;-72
2022/10/21 02:48:46;;;;;;;;;;;;;;;;;;5007763;28;1311;-72
2022/10/21 02:51:11;;;;;;;;;;;;;;;;;;4990823;28;1906;-73
2022/10/21 02:53:37;;;;;;;;;;;;;;;;;;4990983;28;1183;-71
2022/10/21 02:56:02;;;;;;;;;;;;;;;;;;5006208;28;1311;-71
2022/10/21 02:58:28;;;;;;;;;;;;;;;;;;4991479;28;1157;-72
2022/10/21 03:00:53;;;;;;;;;;;;;;;;;;5007685;28;1248;-72
2022/10/21 03:03:18;;;;;;;;;;;;;;;;;;5023225;28;1367;-71
2022/10/21 03:05:44;;;;;;;;;;;;;;;;;;5011011;28;869;-72
2022/10/21 03:08:09;;;;;;;;;;;;;;;;;;5012451;28;901;-72
2022/10/21 03:10:34;;;;;;;;;;;;;;;;;;5012634;28;1902;-72
2022/10/21 03:13:00;;;;;;;;;;;;;;;;;;5011212;28;894;-72
2022/10/21 03:15:25;;;;;;;;;;;;;;;;;;5012422;28;887;-72
2022/10/21 03:17:50;;;;;;;;;;;;;;;;;;5027303;28;1391;-72
2022/10/21 03:20:16;;;;;;;;;;;;;;;;;;5008670;28;3002;-72
2022/10/21 03:22:42;;;;;;;;;;;;;;;;;;5005342;28;3305;-72
2022/10/21 03:25:08;;;;;;;;;;;;;;;;;;4991942;28;892;-72
2022/10/21 03:27:33;;;;;;;;;;;;;;;;;;5013035;28;3199;-72
2022/10/21 03:29:59;;;;;;;;;;;;;;;;;;5019687;28;3203;-72
2022/10/21 03:32:24;;;;;;;;;;;;;;;;;;4990927;28;1165;-72
2022/10/21 03:34:49;;;;;;;;;;;;;;;;;;4990126;28;1295;-72
2022/10/21 03:37:14;;;;;;;;;;;;;;;;;;4990182;28;1537;-72
2022/10/21 03:39:47;;;;;;;;;;;;;;;;;;4990600;28;936;-72
2022/10/21 03:42:12;;;;;;;;;;;;;;;;;;5005728;28;1330;-71
2022/10/21 03:44:38;;;;;;;;;;;;;;;;;;4991353;28;941;-71
2022/10/21 03:47:04;;;;;;;;;;;;;;;;;;4991048;28;853;-72
2022/10/21 03:49:29;;;;;;;;;;;;;;;;;;4989832;28;1055;-72
2022/10/21 03:51:54;;;;;;;;;;;;;;;;;;4989828;28;1907;-72
2022/10/21 03:54:19;;;;;;;;;;;;;;;;;;4991223;28;822;-72
2022/10/21 03:56:45;;;;;;;;;;;;;;;;;;5006002;28;1222;-71
2022/10/21 03:59:10;;;;;;;;;;;;;;;;;;4991167;28;889;-72
2022/10/21 04:01:36;;;;;;;;;;;;;;;;;;4991048;28;928;-72
2022/10/21 04:04:01;;;;;;;;;;;;;;;;;;5014063;28;1196;-71
2022/10/21 04:06:26;;;;;;;;;;;;;;;;;;5005552;28;1384;-72
2022/10/21 04:08:51;;;;;;;;;;;;;;;;;;5040702;28;1453;-71
2022/10/21 04:11:17;;;;;;;;;;;;;;;;;;5008212;28;1902;-72
2022/10/21 04:13:42;;;;;;;;;;;;;;;;;;5010423;28;889;-71
2022/10/21 04:16:12;;;;;;;;;;;;;;;;;;5008910;28;1164;-71
2022/10/21 04:18:37;;;;;;;;;;;;;;;;;;5010848;28;1099;-72
2022/10/21 04:21:03;;;;;;;;;;;;;;;;;;5008705;28;1506;-71
2022/10/21 04:23:31;;;;;;;;;;;;;;;;;;5010411;28;1026;-72
2022/10/21 04:25:56;;;;;;;;;;;;;;;;;;5010447;28;912;-72
2022/10/21 04:28:21;;;;;;;;;;;;;;;;;;5024907;28;1239;-72
2022/10/21 04:30:48;;;;;;;;;;;;;;;;;;5025908;28;1953;-72
2022/10/21 04:33:14;;;;;;;;;;;;;;;;;;5009551;28;1290;-72
2022/10/21 04:35:39;;;;;;;;;;;;;;;;;;5022025;28;1208;-72
2022/10/21 04:38:04;;;;;;;;;;;;;;;;;;5012620;28;1212;-72
2022/10/21 04:40:29;;;;;;;;;;;;;;;;;;5030790;28;964;-72
2022/10/21 04:42:55;;;;;;;;;;;;;;;;;;5012747;28;1103;-72
2022/10/21 04:45:20;;;;;;;;;;;;;;;;;;5013437;28;1069;-72
2022/10/21 04:47:45;;;;;;;;;;;;;;;;;;5030514;28;956;-72
2022/10/21 04:50:11;;;;;;;;;;;;;;;;;;5012531;28;1949;-72
2022/10/21 04:52:37;;;;;;;;;;;;;;;;;;5030192;28;849;-72
2022/10/21 04:55:02;;;;;;;;;;;;;;;;;;5011875;28;1158;-71
2022/10/21 04:57:28;;;;;;;;;;;;;;;;;;5029719;28;997;-72
2022/10/21 04:59:53;;;;;;;;;;;;;;;;;;5011678;28;1196;-72
2022/10/21 05:02:18;;;;;;;;;;;;;;;;;;5011654;28;1375;-72
2022/10/21 05:04:43;;;;;;;;;;;;;;;;;;5029638;28;897;-72
2022/10/21 05:07:09;;;;;;;;;;;;;;;;;;5011628;28;1306;-72
2022/10/21 05:09:35;;;;;;;;;;;;;;;;;;5029503;28;897;-72
2022/10/21 05:12:00;;;;;;;;;;;;;;;;;;5028416;28;1963;-72
2022/10/21 05:14:25;;;;;;;;;;;;;;;;;;5029441;28;963;-72
2022/10/21 05:16:51;;;;;;;;;;;;;;;;;;5011355;28;1102;-72
2022/10/21 05:19:16;;;;;;;;;;;;;;;;;;5030348;28;836;-72
2022/10/21 05:21:41;;;;;;;;;;;;;;;;;;5032129;28;983;-72
2022/10/21 05:24:09;;;;;;;;;;;;;;;;;;5015346;28;1189;-72
2022/10/21 05:26:34;;;;;;;;;;;;;;;;;;5015283;28;1196;-72
2022/10/21 05:29:00;;;;;;;;;;;;;;;;;;5033165;28;849;-71
2022/10/21 05:31:25;;;;;;;;;;;;;;;;;;5015444;28;1971;-68
2022/10/21 05:33:50;;;;;;;;;;;;;;;;;;5033227;28;884;-68
2022/10/21 05:36:16;;;;;;;;;;;;;;;;;;5032722;28;1201;-68
2022/10/21 05:38:41;;;;;;;;;;;;;;;;;;5033078;28;900;-68
2022/10/21 05:41:06;;;;;;;;;;;;;;;;;;5032799;28;668;-68
2022/10/21 05:43:32;;;;;;;;;;;;;;;;;;5031739;28;825;-68
2022/10/21 05:45:57;;;;;;;;;;;;;;;;;;5014932;28;1331;-68
2022/10/21 05:48:23;;;;;;;;;;;;;;;;;;5014760;28;1351;-68
2022/10/21 05:50:50;;;;;;;;;;;;;;;;;;5032437;28;1977;-68
2022/10/21 05:53:16;;;;;;;;;;;;;;;;;;5032950;28;992;-68
2022/10/21 05:55:41;;;;;;;;;;;;;;;;;;5033091;28;905;-68
2022/10/21 05:58:06;;;;;;;;;;;;;;;;;;5031038;28;825;-69
2022/10/21 06:00:32;;;;;;;;;;;;;;;;;;5014504;28;1242;-68
2022/10/21 06:02:57;;;;;;;;;;;;;;;;;;5031475;28;931;-68
2022/10/21 06:05:22;;;;;;;;;;;;;;;;;;5015048;28;1248;-68
2022/10/21 06:07:47;;;;;;;;;;;;;;;;;;5014458;28;1192;-68
2022/10/21 06:10:15;;;;;;;;;;;;;;;;;;5032343;28;2327;-68
2022/10/21 06:12:40;;;;;;;;;;;;;;;;;;5015502;28;1236;-68
2022/10/21 06:15:06;;;;;;;;;;;;;;;;;;5033875;28;913;-77
2022/10/21 06:17:31;;;;;;;;;;;;;;;;;;5034147;28;949;-77
2022/10/21 06:19:56;;;;;;;;;;;;;;;;;;5033980;28;909;-76
2022/10/21 06:22:21;;;;;;;;;;;;;;;;;;5015968;28;1200;-77
2022/10/21 06:24:48;;;;;;;;;;;;;;;;;;5016920;28;1343;-77
2022/10/21 06:27:13;;;;;;;;;;;;;;;;;;5015425;28;1315;-76
2022/10/21 06:29:39;;;;;;;;;;;;;;;;;;5015567;28;1330;-76
2022/10/21 06:32:04;;;;;;;;;;;;;;;;;;5032648;28;1949;-76
2022/10/21 06:34:29;;;;;;;;;;;;;;;;;;5032199;28;951;-76
2022/10/21 06:36:55;;;;;;;;;;;;;;;;;;5014850;28;1303;-76
2022/10/21 06:39:20;;;;;;;;;;;;;;;;;;5033239;28;904;-76
2022/10/21 06:41:45;;;;;;;;;;;;;;;;;;5014262;28;1311;-76
2022/10/21 06:44:11;;;;;;;;;;;;;;;;;;5015080;28;1122;-76
2022/10/21 06:46:36;;;;;;;;;;;;;;;;;;5032142;28;956;-69
2022/10/21 06:49:02;;;;;;;;;;;;;;;;;;5013969;28;1295;-68
2022/10/21 06:51:28;;;;;;;;;;;;;;;;;;5031582;28;1914;-68
2022/10/21 06:53:54;;;;;;;;;;;;;;;;;;5014222;28;1415;-68
2022/10/21 06:56:20;;;;;;;;;;;;;;;;;;5013314;28;1306;-69
2022/10/21 06:58:47;;;;;;;;;;;;;;;;;;5031810;28;817;-68
2022/10/21 07:01:15;;;;;;;;;;;;;;;;;;5013671;28;1245;-68
2022/10/21 07:03:40;;;;;;;;;;;;;;;;;;5031955;28;908;-68
2022/10/21 07:06:05;;;;;;;;;;;;;;;;;;5013592;28;1121;-68
2022/10/21 07:08:31;;;;;;;;;;;;;;;;;;5031656;28;825;-68
2022/10/21 07:10:57;;;;;;;;;;;;;;;;;;5031312;28;1959;-68
2022/10/21 07:13:23;;;;;;;;;;;;;;;;;;5031031;28;896;-68
2022/10/21 07:15:58;;;;;;;;;;;;;;;;;;5031202;28;782;-68
2022/10/21 07:18:23;;;;;;;;;;;;;;;;;;5030772;28;798;-68
2022/10/21 07:20:48;;;;;;;;;;;;;;;;;;5013705;28;1363;-68
2022/10/21 07:23:13;;;;;;;;;;;;;;;;;;5012992;28;1307;-68
2022/10/21 07:25:39;;;;;;;;;;;;;;;;;;5031382;28;797;-68
2022/10/21 07:28:04;;;;;;;;;;;;;;;;;;5030867;28;841;-68
2022/10/21 07:30:30;;;;;;;;;;;;;;;;;;5031233;28;1898;-68
2022/10/21 07:32:55;;;;;;;;;;;;;;;;;;5013107;28;1424;-68
2022/10/21 07:35:20;;;;;;;;;;;;;;;;;;5030735;28;1208;-68
2022/10/21 07:37:45;;;;;;;;;;;;;;;;;;5014089;28;1303;-69
2022/10/21 07:40:11;;;;;;;;;;;;;;;;;;5032310;28;869;-68
2022/10/21 07:42:36;;;;;;;;;;;;;;;;;;5030280;28;884;-69
2022/10/21 07:45:02;;;;;;;;;;;;;;;;;;5031351;28;976;-68
2022/10/21 07:47:27;;;;;;;;;;;;;;;;;;5031807;28;877;-68
2022/10/21 07:49:52;;;;;;;;;;;;;;;;;;5031624;28;849;-68
2022/10/21 07:52:17;;;;;;;;;;;;;;;;;;5012976;28;1927;-68
2022/10/21 07:54:43;;;;;;;;;;;;;;;;;;5013430;28;1228;-68
2022/10/21 07:57:08;;;;;;;;;;;;;;;;;;5030371;28;845;-68
2022/10/21 07:59:33;;;;;;;;;;;;;;;;;;5030644;28;906;-68
2022/10/21 08:01:59;;;;;;;;;;;;;;;;;;5030791;28;1004;-68
2022/10/21 08:04:28;;;;;;;;;;;;;;;;;;5012857;28;1252;-68
2022/10/21 08:06:54;;;;;;;;;;;;;;;;;;5031191;28;798;-68
2022/10/21 08:09:19;;;;;;;;;;;;;;;;;;5013309;28;1201;-68
2022/10/21 08:11:44;;;;;;;;;;;;;;;;;;5012934;28;1940;-68
2022/10/21 08:14:10;;;;;;;;;;;;;;;;;;5030601;28;826;-68
2022/10/21 08:16:36;;;;;;;;;;;;;;;;;;5029161;28;1026;-68
2022/10/21 08:19:02;;;;;;;;;;;;;;;;;;5012929;28;1236;-67
2022/10/21 08:21:29;;;;;;;;;;;;;;;;;;5012915;28;1085;-68
2022/10/21 08:23:55;;;;;;;;;;;;;;;;;;5013929;28;1356;-68
2022/10/21 08:26:20;;;;;;;;;;;;;;;;;;5029655;28;889;-68
2022/10/21 08:28:45;;;;;;;;;;;;;;;;;;5013216;28;1309;-68
2022/10/21 08:31:15;;;;;;;;;;;;;;;;;;5030360;28;1910;-68
2022/10/21 08:33:40;;;;;;;;;;;;;;;;;;5013873;28;1339;-67
2022/10/21 08:36:07;;;;;;;;;;;;;;;;;;5030492;28;1101;-67
2022/10/21 08:38:32;;;;;;;;;;;;;;;;;;5013284;28;1359;-67
2022/10/21 08:40:58;;;;;;;;;;;;;;;;;;5012701;28;1236;-67
2022/10/21 08:43:25;;;;;;;;;;;;;;;;;;5031114;28;877;-68
2022/10/21 08:45:53;;;;;;;;;;;;;;;;;;5030795;28;861;-68
2022/10/21 08:48:24;;;;;;;;;;;;;;;;;;5030738;28;1099;-67
2022/10/21 08:50:50;;;;;;;;;;;;;;;;;;5012474;28;1910;-68
2022/10/21 08:53:31;;;;;;;;;;;;;;;;;;5012570;28;1387;-68
2022/10/21 08:55:59;;;;;;;;;;;;;;;;;;5030245;28;845;-67
2022/10/21 08:58:24;;;;;;;;;;;;;;;;;;5012446;28;1234;-68
2022/10/21 09:01:04;;;;;;;;;;;;;;;;;;5013172;28;1480;-68
2022/10/21 09:03:44;;;;;;;;;;;;;;;;;;5013915;28;1555;-68
2022/10/21 09:06:18;;;;;;;;;;;;;;;;;;5031816;28;845;-68
2022/10/21 09:08:45;;;;;;;;;;;;;;;;;;5032044;28;1001;-67
2022/10/21 09:11:27;;;;;;;;;;;;;;;;;;5032128;28;1910;-67
2022/10/21 09:14:11;;;;;;;;;;;;;;;;;;5032655;28;938;-68
2022/10/21 09:16:53;;;;;;;;;;;;;;;;;;5033088;28;964;-67
2022/10/21 09:19:18;;;;;;;;;;;;;;;;;;5032744;28;845;-68
2022/10/21 09:21:57;;;;;;;;;;;;;;;;;;5033263;28;980;-67
2022/10/21 09:24:44;;;;;;;;;;;;;;;;;;5033486;28;908;-67
2022/10/21 09:27:10;;;;;;;;;;;;;;;;;;5033478;28;860;-67
2022/10/21 09:29:36;;;;;;;;;;;;;;;;;;5015291;28;1236;-68
2022/10/21 09:32:18;;;;;;;;;;;;;;;;;;5032169;28;1910;-68
2022/10/21 09:35:02;;;;;;;;;;;;;;;;;;5014353;28;1128;-68
2022/10/21 09:37:34;;;;;;;;;;;;;;;;;;5019892;28;1211;-76
2022/10/21 09:40:04;;;;;;;;;;;;;;;;;;5037710;28;841;-76
2022/10/21 09:42:29;;;;;;;;;;;;;;;;;;5045558;28;755;-76
2022/10/21 09:44:55;;;;;;;;;;;;;;;;;;5046954;28;1090;-75
2022/10/21 09:47:21;;;;;;;;;;;;;;;;;;5033807;28;995;-77
2022/10/21 09:49:49;;;;;;;;;;;;;;;;;;5031331;28;813;-77
2022/10/21 09:52:16;;;;;;;;;;;;;;;;;;5030014;28;1894;-77
2022/10/21 09:54:41;;;;;;;;;;;;;;;;;;5030537;28;1016;-77
2022/10/21 09:57:13;;;;;;;;;;;;;;;;;;5012540;28;1262;-76
2022/10/21 09:59:57;;;;;;;;;;;;;;;;;;5030021;28;849;-76
2022/10/21 10:02:26;;;;;;;;;;;;;;;;;;5029706;28;866;-77
2022/10/21 10:04:51;;;;;;;;;;;;;;;;;;5013372;28;1395;-76
2022/10/21 10:07:26;;;;;;;;;;;;;;;;;;5016393;28;1117;-77
2022/10/21 10:09:51;;;;;;;;;;;;;;;;;;5034492;28;893;-76
2022/10/21 10:12:21;;;;;;;;;;;;;;;;;;5033120;28;1972;-76
2022/10/21 10:14:46;;;;;;;;;;;;;;;;;;5033961;28;903;-76
2022/10/21 10:17:20;;;;;;;;;;;;;;;;;;5015423;28;1179;-76
2022/10/21 10:20:04;;;;;;;;;;;;;;;;;;5015911;28;1145;-76
2022/10/21 10:22:36;;;;;;;;;;;;;;;;;;5032893;28;895;-77
2022/10/21 10:25:10;;;;;;;;;;;;;;;;;;5033529;28;932;-76
2022/10/21 10:27:45;;;;;;;;;;;;;;;;;;5033623;28;983;-68
2022/10/21 10:30:12;;;;;;;;;;;;;;;;;;5032276;28;1957;-68
2022/10/21 10:32:37;;;;;;;;;;;;;;;;;;5015572;28;1270;-69
2022/10/21 10:35:06;;;;;;;;;;;;;;;;;;5011276;28;1351;-69
2022/10/21 10:37:35;;;;;;;;;;;;;;;;;;5011133;28;1243;-68
2022/10/21 10:40:05;;;;;;;;;;;;;;;;;;5011124;28;1307;-69
2022/10/21 10:42:36;;;;;;;;;;;;;;;;;;5012124;28;968;-68
2022/10/21 10:45:04;;;;;;;;;;;;;;;;;;5012514;28;829;-68
2022/10/21 10:47:34;;;;;;;;;;;;;;;;;;5012191;28;1557;-68
2022/10/21 10:49:59;;;;;;;;;;;;;;;;;;5012527;28;880;-68
2022/10/21 10:52:25;;;;;;;;;;;;;;;;;;5010968;28;1918;-68
2022/10/21 10:55:08;;;;;;;;;;;;;;;;;;5027714;28;1176;-68
2022/10/21 10:57:35;;;;;;;;;;;;;;;;;;5010735;28;1310;-68
2022/10/21 11:00:03;;;;;;;;;;;;;;;;;;5012765;28;1004;-76
2022/10/21 11:02:28;;;;;;;;;;;;;;;;;;5012359;28;904;-77
2022/10/21 11:05:16;;;;;;;;;;;;;;;;;;5011127;28;1179;-72
2022/10/21 11:07:51;;;;;;;;;;;;;;;;;;5027786;28;1172;-72
2022/10/21 11:10:36;;;;;;;;;;;;;;;;;;5010982;28;1898;-72
2022/10/21 11:13:04;;;;;;;;;;;;;;;;;;5004925;28;1185;-72
2022/10/21 11:15:37;;;;;;;;;;;;;;;;;;5012376;28;877;-72
2022/10/21 11:18:38;;;;;;;;;;;;;;;;;;5011124;28;936;-72
2022/10/21 11:21:29;;;;;;;;;;;;;;;;;;4954965;28;1260;-71
2022/10/21 11:24:18;;;;;;;;;;;;;;;;;;4974279;28;1182;-72
2022/10/21 11:26:43;;;;;;;;;;;;;;;;;;5013464;28;920;-72
2022/10/21 11:29:30;;;;;;;;;;;;;;;;;;5013461;28;896;-72
2022/10/21 11:32:10;;;;;;;;;;;;;;;;;;5012623;28;1949;-72
2022/10/21 11:34:47;;;;;;;;;;;;;;;;;;5013297;28;1220;-75
2022/10/21 11:37:12;;;;;;;;;;;;;;;;;;5032093;28;1204;-75
2022/10/21 11:39:50;;;;;;;;;;;;;;;;;;5033151;28;885;-76
2022/10/21 11:42:25;;;;;;;;;;;;;;;;;;5014071;28;1268;-75
2022/10/21 11:45:09;;;;;;;;;;;;;;;;;;5031839;28;909;-76
2022/10/21 11:47:40;;;;;;;;;;;;;;;;;;5014073;28;1256;-76
2022/10/21 11:50:12;;;;;;;;;;;;;;;;;;5013667;28;1277;-74
2022/10/21 11:52:56;;;;;;;;;;;;;;;;;;5013626;28;1898;-75
2022/10/21 11:55:40;;;;;;;;;;;;;;;;;;5013478;28;1308;-75
2022/10/21 11:58:21;;;;;;;;;;;;;;;;;;5013609;28;1141;-75
2022/10/21 12:01:09;;;;;;;;;;;;;;;;;;5013590;28;1157;-75
2022/10/21 12:03:46;;;;;;;;;;;;;;;;;;5007728;28;1146;-75
2022/10/21 12:06:22;;;;;;;;;;;;;;;;;;5013614;28;1144;-75
2022/10/21 12:08:47;;;;;;;;;;;;;;;;;;5013754;28;1209;-75
2022/10/21 12:11:16;;;;;;;;;;;;;;;;;;5012203;28;1906;-75
2022/10/21 12:13:43;;;;;;;;;;;;;;;;;;5014016;28;1133;-75
2022/10/21 12:16:10;;;;;;;;;;;;;;;;;;5013233;28;1263;-76
2022/10/21 12:18:39;;;;;;;;;;;;;;;;;;5012909;28;1223;-75
2022/10/21 12:21:05;;;;;;;;;;;;;;;;;;5031121;28;1026;-75
2022/10/21 12:23:31;;;;;;;;;;;;;;;;;;5030368;28;920;-75
2022/10/21 12:25:56;;;;;;;;;;;;;;;;;;5013580;28;1219;-75
2022/10/21 12:28:27;;;;;;;;;;;;;;;;;;5030196;28;885;-75
2022/10/21 12:31:15;;;;;;;;;;;;;;;;;;5031015;28;1910;-75
2022/10/21 12:33:42;;;;;;;;;;;;;;;;;;5024055;28;1295;-75
2022/10/21 12:36:10;;;;;;;;;;;;;;;;;;5030594;28;1268;-75
2022/10/21 12:38:43;;;;;;;;;;;;;;;;;;5030275;28;893;-76
2022/10/21 12:41:25;;;;;;;;;;;;;;;;;;5030457;28;651;-67
2022/10/21 12:43:59;;;;;;;;;;;;;;;;;;5012695;28;1309;-67
2022/10/21 12:46:26;;;;;;;;;;;;;;;;;;5011821;28;1270;-67
2022/10/21 12:48:52;;;;;;;;;;;;;;;;;;5012828;28;1292;-67
2022/10/21 12:51:22;;;;;;;;;;;;;;;;;;5012111;28;1918;-67
2022/10/21 12:54:03;;;;;;;;;;;;;;;;;;5030302;28;861;-68
2022/10/21 12:56:47;;;;;;;;;;;;;;;;;;5011647;28;1390;-68
2022/10/21 12:59:27;;;;;;;;;;;;;;;;;;5030086;28;1007;-68
2022/10/21 13:02:22;;;;;;;;;;;;;;;;;;5030655;28;951;-67
2022/10/21 13:04:49;;;;;;;;;;;;;;;;;;5021169;28;1018;-68
2022/10/21 13:07:14;;;;;;;;;;;;;;;;;;5029820;28;845;-66
2022/10/21 13:09:42;;;;;;;;;;;;;;;;;;5013722;28;1140;-67
2022/10/21 13:12:07;;;;;;;;;;;;;;;;;;5031318;28;1894;-68
2022/10/21 13:14:41;;;;;;;;;;;;;;;;;;5012549;28;1220;-68
2022/10/21 13:17:21;;;;;;;;;;;;;;;;;;5031297;28;845;-68
2022/10/21 13:19:47;;;;;;;;;;;;;;;;;;5031384;28;841;-68
2022/10/21 13:22:20;;;;;;;;;;;;;;;;;;5031150;28;849;-67
2022/10/21 13:24:47;;;;;;;;;;;;;;;;;;5012511;28;1268;-68
2022/10/21 13:27:24;;;;;;;;;;;;;;;;;;5029996;28;854;-67
2022/10/21 13:29:52;;;;;;;;;;;;;;;;;;5030484;28;795;-68
2022/10/21 13:32:22;;;;;;;;;;;;;;;;;;5011847;28;1953;-67
2022/10/21 13:34:47;;;;;;;;;;;;;;;;;;5030238;28;837;-68
2022/10/21 13:37:14;;;;;;;;;;;;;;;;;;5012149;28;1348;-67
2022/10/21 13:39:41;;;;;;;;;;;;;;;;;;5029779;28;888;-67
2022/10/21 13:42:09;;;;;;;;;;;;;;;;;;5016581;28;1353;-68
2022/10/21 13:44:39;;;;;;;;;;;;;;;;;;5033280;28;869;-68
2022/10/21 13:47:37;;;;;;;;;;;;;;;;;;5033947;28;873;-67
2022/10/21 13:50:15;;;;;;;;;;;;;;;;;;5010482;28;1243;-67
2022/10/21 13:52:43;;;;;;;;;;;;;;;;;;5033501;28;1971;-68
2022/10/21 13:55:19;;;;;;;;;;;;;;;;;;5032722;28;908;-68
2022/10/21 13:57:46;;;;;;;;;;;;;;;;;;5033741;28;817;-68
2022/10/21 14:00:38;;;;;;;;;;;;;;;;;;5034103;28;1019;-67
2022/10/21 14:03:04;;;;;;;;;;;;;;;;;;5013722;28;1251;-68
2022/10/21 14:05:37;;;;;;;;;;;;;;;;;;5033320;28;797;-68
2022/10/21 14:08:19;;;;;;;;;;;;;;;;;;5015720;28;1263;-68
2022/10/21 14:10:45;;;;;;;;;;;;;;;;;;5034122;28;1918;-75
2022/10/21 14:13:10;;;;;;;;;;;;;;;;;;5016430;28;1383;-75
2022/10/21 14:15:40;;;;;;;;;;;;;;;;;;5033506;28;832;-75
2022/10/21 14:18:06;;;;;;;;;;;;;;;;;;5016057;28;1246;-68
2022/10/21 14:20:36;;;;;;;;;;;;;;;;;;5033397;28;912;-68
2022/10/21 14:23:03;;;;;;;;;;;;;;;;;;5016462;28;1204;-68
2022/10/21 14:25:29;;;;;;;;;;;;;;;;;;5033346;28;904;-68
2022/10/21 14:27:54;;;;;;;;;;;;;;;;;;5017098;28;1213;-68
2022/10/21 14:30:21;;;;;;;;;;;;;;;;;;5032337;28;1961;-69
2022/10/21 14:32:47;;;;;;;;;;;;;;;;;;5034387;28;1059;-69
2022/10/21 14:35:12;;;;;;;;;;;;;;;;;;5016286;28;1292;-69
2022/10/21 14:37:42;;;;;;;;;;;;;;;;;;5033806;28;936;-68
2022/10/21 14:40:16;;;;;;;;;;;;;;;;;;5034277;28;865;-67
2022/10/21 14:42:42;;;;;;;;;;;;;;;;;;5034191;28;802;-68
2022/10/21 14:45:13;;;;;;;;;;;;;;;;;;5034489;28;1002;-67
2022/10/21 14:47:38;;;;;;;;;;;;;;;;;;5015082;28;1269;-67
2022/10/21 14:50:04;;;;;;;;;;;;;;;;;;5032475;28;1212;-68
2022/10/21 14:52:34;;;;;;;;;;;;;;;;;;5013012;28;1989;-68
2022/10/21 14:55:01;;;;;;;;;;;;;;;;;;5032799;28;865;-69
2022/10/21 14:57:46;;;;;;;;;;;;;;;;;;5014655;28;1082;-66
2022/10/21 15:00:28;;;;;;;;;;;;;;;;;;5032730;28;1004;-69
2022/10/21 15:02:55;;;;;;;;;;;;;;;;;;5032918;28;1040;-69
2022/10/21 15:05:29;;;;;;;;;;;;;;;;;;5031849;28;896;-68
2022/10/21 15:08:13;;;;;;;;;;;;;;;;;;5014704;28;1334;-71
2022/10/21 15:10:38;;;;;;;;;;;;;;;;;;5014752;28;1898;-71
2022/10/21 15:13:13;;;;;;;;;;;;;;;;;;5031260;28;908;-71
2022/10/21 15:15:38;;;;;;;;;;;;;;;;;;5032123;28;970;-71
2022/10/21 15:18:05;;;;;;;;;;;;;;;;;;5032805;28;837;-71
2022/10/21 15:20:31;;;;;;;;;;;;;;;;;;5014362;28;1315;-71
2022/10/21 15:22:56;;;;;;;;;;;;;;;;;;5014914;28;1407;-70
2022/10/21 15:25:22;;;;;;;;;;;;;;;;;;5031437;28;880;-70
2022/10/21 15:27:48;;;;;;;;;;;;;;;;;;5032337;28;837;-70
2022/10/21 15:30:14;;;;;;;;;;;;;;;;;;5032433;28;802;-70
2022/10/21 15:32:39;;;;;;;;;;;;;;;;;;5014081;28;1966;-70
2022/10/21 15:35:11;;;;;;;;;;;;;;;;;;5012795;28;1481;-70
2022/10/21 15:37:36;;;;;;;;;;;;;;;;;;5031756;28;896;-69
2022/10/21 15:40:02;;;;;;;;;;;;;;;;;;5014243;28;1292;-70
2022/10/21 15:42:27;;;;;;;;;;;;;;;;;;5031802;28;852;-69
2022/10/21 15:44:52;;;;;;;;;;;;;;;;;;5014334;28;1128;-70
2022/10/21 15:47:18;;;;;;;;;;;;;;;;;;5030649;28;1007;-69
2022/10/21 15:49:45;;;;;;;;;;;;;;;;;;5031362;28;833;-69
2022/10/21 15:52:11;;;;;;;;;;;;;;;;;;5031199;28;1902;-69
2022/10/21 15:54:36;;;;;;;;;;;;;;;;;;5031459;28;810;-70
2022/10/21 15:57:04;;;;;;;;;;;;;;;;;;5031892;28;805;-70
2022/10/21 15:59:32;;;;;;;;;;;;;;;;;;5031898;28;947;-69
2022/10/21 16:01:59;;;;;;;;;;;;;;;;;;5031057;28;996;-69
2022/10/21 16:04:24;;;;;;;;;;;;;;;;;;5030045;28;923;-69
2022/10/21 16:06:50;;;;;;;;;;;;;;;;;;5030055;28;805;-69
2022/10/21 16:09:17;;;;;;;;;;;;;;;;;;5030938;28;951;-69
2022/10/21 16:11:46;;;;;;;;;;;;;;;;;;5013924;28;1898;-69
2022/10/21 16:14:13;;;;;;;;;;;;;;;;;;5014165;28;1171;-69
2022/10/21 16:16:41;;;;;;;;;;;;;;;;;;5029989;28;856;-71
2022/10/21 16:19:07;;;;;;;;;;;;;;;;;;5015018;28;1228;-69
2022/10/21 16:21:33;;;;;;;;;;;;;;;;;;5014156;28;1161;-69
2022/10/21 16:23:58;;;;;;;;;;;;;;;;;;5031283;28;951;-69
2022/10/21 16:26:25;;;;;;;;;;;;;;;;;;5031740;28;912;-69
2022/10/21 16:28:51;;;;;;;;;;;;;;;;;;5014385;28;1212;-69
2022/10/21 16:31:17;;;;;;;;;;;;;;;;;;5032032;28;1897;-69
2022/10/21 16:33:43;;;;;;;;;;;;;;;;;;5013677;28;1232;-69
2022/10/21 16:36:26;;;;;;;;;;;;;;;;;;5013603;28;1225;-69
2022/10/21 16:38:52;;;;;;;;;;;;;;;;;;5013487;28;1181;-69
2022/10/21 16:41:19;;;;;;;;;;;;;;;;;;5013270;28;1180;-69
2022/10/21 16:43:45;;;;;;;;;;;;;;;;;;5012650;28;1280;-69
2022/10/21 16:46:29;;;;;;;;;;;;;;;;;;5013660;28;1294;-70
2022/10/21 16:48:55;;;;;;;;;;;;;;;;;;5013047;28;1200;-69
2022/10/21 16:51:22;;;;;;;;;;;;;;;;;;5013153;28;1965;-71
2022/10/21 16:53:47;;;;;;;;;;;;;;;;;;5012682;28;1180;-71
2022/10/21 16:56:12;;;;;;;;;;;;;;;;;;5030759;28;912;-71
2022/10/21 16:58:38;;;;;;;;;;;;;;;;;;5029229;28;1017;-70
2022/10/21 17:01:04;;;;;;;;;;;;;;;;;;5012710;28;1164;-71
2022/10/21 17:03:29;;;;;;;;;;;;;;;;;;5012626;28;1221;-71
2022/10/21 17:05:54;;;;;;;;;;;;;;;;;;5029892;28;900;-71
2022/10/21 17:08:20;;;;;;;;;;;;;;;;;;5029644;28;975;-70
2022/10/21 17:10:48;;;;;;;;;;;;;;;;;;5012986;28;1976;-70
2022/10/21 17:13:13;;;;;;;;;;;;;;;;;;5013327;28;1280;-71
2022/10/21 17:15:38;;;;;;;;;;;;;;;;;;5014753;28;1188;-70
2022/10/21 17:18:03;;;;;;;;;;;;;;;;;;5035460;28;940;-70
2022/10/21 17:20:35;;;;;;;;;;;;;;;;;;5034891;28;987;-70